sensor_id;sensor_type;location;lat;lon;timestamp;pressure;altitude;pressure_sealevel;temperature;humidity
77092;BME280;66032;48.252;11.638;2023-04-22T00:00:20;95463.69;;;9.16;76.61
77092;BME280;66032;48.252;11.638;2023-04-22T00:02:47;95462.66;;;9.08;76.43
77092;BME280;66032;48.252;11.638;2023-04-22T00:05:15;95456.38;;;9.01;77.08
77092;BME280;66032;48.252;11.638;2023-04-22T00:07:46;95463.09;;;8.96;77.09
77092;BME280;66032;48.252;11.638;2023-04-22T00:10:14;95466.41;;;8.90;77.25
77092;BME280;66032;48.252;11.638;2023-04-22T00:12:41;95471.34;;;8.85;77.53
77092;BME280;66032;48.252;11.638;2023-04-22T00:15:08;95468.31;;;8.80;77.79
77092;BME280;66032;48.252;11.638;2023-04-22T00:17:37;95477.41;;;8.77;78.13
77092;BME280;66032;48.252;11.638;2023-04-22T00:20:05;95477.03;;;8.72;78.70
77092;BME280;66032;48.252;11.638;2023-04-22T00:22:33;95481.16;;;8.66;79.02
77092;BME280;66032;48.252;11.638;2023-04-22T00:25:01;95469.41;;;8.61;79.19
77092;BME280;66032;48.252;11.638;2023-04-22T00:27:28;95474.47;;;8.54;79.19
77092;BME280;66032;48.252;11.638;2023-04-22T00:29:56;95472.47;;;8.48;79.64
77092;BME280;66032;48.252;11.638;2023-04-22T00:32:23;95471.97;;;8.45;79.87
77092;BME280;66032;48.252;11.638;2023-04-22T00:34:50;95473.09;;;8.42;79.91
77092;BME280;66032;48.252;11.638;2023-04-22T00:37:18;95471.44;;;8.41;80.44
77092;BME280;66032;48.252;11.638;2023-04-22T00:39:45;95462.84;;;8.39;80.87
77092;BME280;66032;48.252;11.638;2023-04-22T00:42:12;95466.47;;;8.38;81.06
77092;BME280;66032;48.252;11.638;2023-04-22T00:44:40;95470.75;;;8.39;81.16
77092;BME280;66032;48.252;11.638;2023-04-22T00:47:08;95469.09;;;8.38;81.15
77092;BME280;66032;48.252;11.638;2023-04-22T00:49:36;95461.34;;;8.36;81.31
77092;BME280;66032;48.252;11.638;2023-04-22T00:52:04;95461.50;;;8.35;81.52
77092;BME280;66032;48.252;11.638;2023-04-22T00:54:33;95461.66;;;8.33;81.74
77092;BME280;66032;48.252;11.638;2023-04-22T00:57:02;95459.84;;;8.34;81.63
77092;BME280;66032;48.252;11.638;2023-04-22T00:59:31;95454.00;;;8.30;81.53
77092;BME280;66032;48.252;11.638;2023-04-22T01:01:59;95459.75;;;8.26;81.17
77092;BME280;66032;48.252;11.638;2023-04-22T01:04:28;95459.22;;;8.22;81.21
77092;BME280;66032;48.252;11.638;2023-04-22T01:06:56;95459.72;;;8.18;81.58
77092;BME280;66032;48.252;11.638;2023-04-22T01:09:23;95450.81;;;8.19;82.53
77092;BME280;66032;48.252;11.638;2023-04-22T01:11:51;95453.94;;;8.22;82.68
77092;BME280;66032;48.252;11.638;2023-04-22T01:14:18;95461.72;;;8.24;82.42
77092;BME280;66032;48.252;11.638;2023-04-22T01:16:46;95462.03;;;8.21;82.53
77092;BME280;66032;48.252;11.638;2023-04-22T01:19:15;95463.03;;;8.20;82.46
77092;BME280;66032;48.252;11.638;2023-04-22T01:21:42;95463.47;;;8.15;82.51
77092;BME280;66032;48.252;11.638;2023-04-22T01:24:11;95464.47;;;8.14;82.39
77092;BME280;66032;48.252;11.638;2023-04-22T01:26:38;95453.22;;;8.12;82.65
77092;BME280;66032;48.252;11.638;2023-04-22T01:29:06;95456.88;;;8.11;82.44
77092;BME280;66032;48.252;11.638;2023-04-22T01:31:33;95460.78;;;8.07;82.62
77092;BME280;66032;48.252;11.638;2023-04-22T01:34:02;95455.81;;;8.04;82.49
77092;BME280;66032;48.252;11.638;2023-04-22T01:36:30;95459.28;;;8.05;83.14
77092;BME280;66032;48.252;11.638;2023-04-22T01:38:59;95453.69;;;8.08;83.37
77092;BME280;66032;48.252;11.638;2023-04-22T01:41:26;95459.97;;;8.07;83.23
77092;BME280;66032;48.252;11.638;2023-04-22T01:43:57;95465.22;;;8.07;83.30
77092;BME280;66032;48.252;11.638;2023-04-22T01:46:24;95464.41;;;8.06;83.60
77092;BME280;66032;48.252;11.638;2023-04-22T01:48:51;95462.25;;;8.02;83.86
77092;BME280;66032;48.252;11.638;2023-04-22T01:51:21;95456.56;;;7.96;84.45
77092;BME280;66032;48.252;11.638;2023-04-22T01:53:49;95458.56;;;7.94;84.69
77092;BME280;66032;48.252;11.638;2023-04-22T01:56:17;95456.06;;;7.93;84.82
77092;BME280;66032;48.252;11.638;2023-04-22T01:58:45;95464.81;;;7.93;84.87
77092;BME280;66032;48.252;11.638;2023-04-22T02:01:12;95465.13;;;7.90;85.23
77092;BME280;66032;48.252;11.638;2023-04-22T02:03:40;95472.19;;;7.90;85.32
77092;BME280;66032;48.252;11.638;2023-04-22T02:06:09;95471.00;;;7.84;85.30
77092;BME280;66032;48.252;11.638;2023-04-22T02:08:36;95471.44;;;7.80;85.65
77092;BME280;66032;48.252;11.638;2023-04-22T02:11:04;95470.81;;;7.78;85.52
77092;BME280;66032;48.252;11.638;2023-04-22T02:13:39;95469.44;;;7.74;85.14
77092;BME280;66032;48.252;11.638;2023-04-22T02:16:07;95467.25;;;7.69;85.00
77092;BME280;66032;48.252;11.638;2023-04-22T02:18:34;95476.91;;;7.60;85.22
77092;BME280;66032;48.252;11.638;2023-04-22T02:21:02;95473.03;;;7.55;85.18
77092;BME280;66032;48.252;11.638;2023-04-22T02:23:30;95468.84;;;7.44;85.08
77092;BME280;66032;48.252;11.638;2023-04-22T02:25:57;95469.44;;;7.38;85.38
77092;BME280;66032;48.252;11.638;2023-04-22T02:28:24;95472.06;;;7.38;85.58
77092;BME280;66032;48.252;11.638;2023-04-22T02:30:52;95473.22;;;7.36;85.51
77092;BME280;66032;48.252;11.638;2023-04-22T02:33:21;95466.56;;;7.32;85.62
77092;BME280;66032;48.252;11.638;2023-04-22T02:35:50;95465.88;;;7.30;85.97
77092;BME280;66032;48.252;11.638;2023-04-22T02:38:18;95457.81;;;7.31;86.04
77092;BME280;66032;48.252;11.638;2023-04-22T02:40:46;95466.41;;;7.33;86.06
77092;BME280;66032;48.252;11.638;2023-04-22T02:43:13;95464.06;;;7.30;86.09
77092;BME280;66032;48.252;11.638;2023-04-22T02:45:41;95461.44;;;7.30;86.16
77092;BME280;66032;48.252;11.638;2023-04-22T02:48:08;95459.78;;;7.29;86.07
77092;BME280;66032;48.252;11.638;2023-04-22T02:50:35;95470.50;;;7.28;86.16
77092;BME280;66032;48.252;11.638;2023-04-22T02:53:03;95460.53;;;7.21;86.30
77092;BME280;66032;48.252;11.638;2023-04-22T02:55:30;95466.94;;;7.19;86.42
77092;BME280;66032;48.252;11.638;2023-04-22T02:57:58;95464.44;;;7.17;86.41
77092;BME280;66032;48.252;11.638;2023-04-22T03:00:25;95463.75;;;7.15;86.68
77092;BME280;66032;48.252;11.638;2023-04-22T03:02:53;95472.34;;;7.17;86.72
77092;BME280;66032;48.252;11.638;2023-04-22T03:05:26;95467.91;;;7.18;86.78
77092;BME280;66032;48.252;11.638;2023-04-22T03:07:53;95461.13;;;7.15;86.54
77092;BME280;66032;48.252;11.638;2023-04-22T03:10:21;95462.38;;;7.11;86.77
77092;BME280;66032;48.252;11.638;2023-04-22T03:12:49;95463.69;;;7.07;86.82
77092;BME280;66032;48.252;11.638;2023-04-22T03:15:18;95468.41;;;7.04;86.84
77092;BME280;66032;48.252;11.638;2023-04-22T03:17:48;95460.81;;;7.01;86.89
77092;BME280;66032;48.252;11.638;2023-04-22T03:20:18;95459.56;;;6.95;86.85
77092;BME280;66032;48.252;11.638;2023-04-22T03:22:46;95455.72;;;6.90;86.93
77092;BME280;66032;48.252;11.638;2023-04-22T03:25:15;95444.13;;;6.82;87.25
77092;BME280;66032;48.252;11.638;2023-04-22T03:27:49;95454.44;;;6.76;87.52
77092;BME280;66032;48.252;11.638;2023-04-22T03:30:16;95452.06;;;6.73;87.78
77092;BME280;66032;48.252;11.638;2023-04-22T03:32:45;95455.81;;;6.70;87.93
77092;BME280;66032;48.252;11.638;2023-04-22T03:35:27;95446.44;;;6.68;88.10
77092;BME280;66032;48.252;11.638;2023-04-22T03:37:58;95454.47;;;6.66;88.13
77092;BME280;66032;48.252;11.638;2023-04-22T03:40:30;95452.94;;;6.64;88.13
77092;BME280;66032;48.252;11.638;2023-04-22T03:43:00;95460.84;;;6.64;88.21
77092;BME280;66032;48.252;11.638;2023-04-22T03:45:28;95457.38;;;6.63;88.30
77092;BME280;66032;48.252;11.638;2023-04-22T03:48:16;95461.81;;;6.63;88.15
77092;BME280;66032;48.252;11.638;2023-04-22T03:50:47;95467.09;;;6.63;88.14
77092;BME280;66032;48.252;11.638;2023-04-22T03:53:15;95464.47;;;6.63;88.18
77092;BME280;66032;48.252;11.638;2023-04-22T03:55:43;95467.22;;;6.61;88.29
77092;BME280;66032;48.252;11.638;2023-04-22T03:58:13;95467.53;;;6.58;88.25
77092;BME280;66032;48.252;11.638;2023-04-22T04:00:41;95466.97;;;6.55;88.31
77092;BME280;66032;48.252;11.638;2023-04-22T04:03:13;95471.28;;;6.56;87.97
77092;BME280;66032;48.252;11.638;2023-04-22T04:05:44;95472.94;;;6.57;87.94
77092;BME280;66032;48.252;11.638;2023-04-22T04:08:11;95477.94;;;6.60;87.72
77092;BME280;66032;48.252;11.638;2023-04-22T04:10:39;95475.56;;;6.57;87.82
77092;BME280;66032;48.252;11.638;2023-04-22T04:13:07;95473.78;;;6.57;87.40
77092;BME280;66032;48.252;11.638;2023-04-22T04:16:02;95473.09;;;6.55;87.67
77092;BME280;66032;48.252;11.638;2023-04-22T04:18:31;95475.56;;;6.57;87.44
77092;BME280;66032;48.252;11.638;2023-04-22T04:20:59;95477.75;;;6.61;87.10
77092;BME280;66032;48.252;11.638;2023-04-22T04:23:28;95477.34;;;6.66;86.76
77092;BME280;66032;48.252;11.638;2023-04-22T04:25:57;95479.00;;;6.67;86.57
77092;BME280;66032;48.252;11.638;2023-04-22T04:28:28;95480.22;;;6.72;86.50
77092;BME280;66032;48.252;11.638;2023-04-22T04:31:00;95473.16;;;6.73;86.36
77092;BME280;66032;48.252;11.638;2023-04-22T04:33:29;95472.41;;;6.80;85.86
77092;BME280;66032;48.252;11.638;2023-04-22T04:35:59;95466.72;;;6.85;85.63
77092;BME280;66032;48.252;11.638;2023-04-22T04:38:30;95460.41;;;6.96;85.04
77092;BME280;66032;48.252;11.638;2023-04-22T04:40:58;95465.34;;;7.08;84.33
77092;BME280;66032;48.252;11.638;2023-04-22T04:43:27;95465.44;;;7.16;84.23
77092;BME280;66032;48.252;11.638;2023-04-22T04:46:03;95463.69;;;7.25;84.21
77092;BME280;66032;48.252;11.638;2023-04-22T04:48:34;95469.75;;;7.35;83.97
77092;BME280;66032;48.252;11.638;2023-04-22T04:51:07;95469.75;;;7.53;83.55
77092;BME280;66032;48.252;11.638;2023-04-22T04:53:48;95470.09;;;7.93;82.65
77092;BME280;66032;48.252;11.638;2023-04-22T04:56:15;95468.13;;;8.39;80.66
77092;BME280;66032;48.252;11.638;2023-04-22T04:58:44;95464.75;;;8.97;78.30
77092;BME280;66032;48.252;11.638;2023-04-22T05:01:21;95467.59;;;9.70;75.25
77092;BME280;66032;48.252;11.638;2023-04-22T05:03:50;95474.22;;;10.39;72.82
77092;BME280;66032;48.252;11.638;2023-04-22T05:06:19;95469.13;;;10.92;70.83
77092;BME280;66032;48.252;11.638;2023-04-22T05:08:58;95476.72;;;11.34;69.62
77092;BME280;66032;48.252;11.638;2023-04-22T05:11:25;95471.50;;;11.72;68.17
77092;BME280;66032;48.252;11.638;2023-04-22T05:13:55;95473.63;;;12.07;67.00
77092;BME280;66032;48.252;11.638;2023-04-22T05:16:31;95474.38;;;12.53;65.65
77092;BME280;66032;48.252;11.638;2023-04-22T05:18:58;95476.09;;;13.13;63.31
77092;BME280;66032;48.252;11.638;2023-04-22T05:21:26;95469.63;;;13.73;61.26
77092;BME280;66032;48.252;11.638;2023-04-22T05:23:53;95461.34;;;14.32;59.58
77092;BME280;66032;48.252;11.638;2023-04-22T05:26:21;95468.78;;;14.86;57.65
77092;BME280;66032;48.252;11.638;2023-04-22T05:28:49;95460.03;;;15.39;55.19
77092;BME280;66032;48.252;11.638;2023-04-22T05:31:20;95471.16;;;16.17;53.18
77092;BME280;66032;48.252;11.638;2023-04-22T05:33:49;95464.56;;;17.12;51.93
77092;BME280;66032;48.252;11.638;2023-04-22T05:36:17;95462.66;;;17.90;48.99
77092;BME280;66032;48.252;11.638;2023-04-22T05:38:46;95465.91;;;18.54;47.51
77092;BME280;66032;48.252;11.638;2023-04-22T05:41:14;95458.78;;;19.71;46.22
77092;BME280;66032;48.252;11.638;2023-04-22T05:43:42;95470.63;;;20.71;45.00
77092;BME280;66032;48.252;11.638;2023-04-22T05:46:14;95475.16;;;21.76;40.86
77092;BME280;66032;48.252;11.638;2023-04-22T05:48:43;95474.56;;;22.87;39.90
77092;BME280;66032;48.252;11.638;2023-04-22T05:51:31;95470.13;;;22.81;37.97
77092;BME280;66032;48.252;11.638;2023-04-22T05:53:59;95470.94;;;23.92;37.70
77092;BME280;66032;48.252;11.638;2023-04-22T05:56:26;95473.53;;;24.84;35.76
77092;BME280;66032;48.252;11.638;2023-04-22T05:58:54;95476.88;;;25.28;34.75
77092;BME280;66032;48.252;11.638;2023-04-22T06:01:23;95481.53;;;25.75;34.31
77092;BME280;66032;48.252;11.638;2023-04-22T06:03:57;95474.75;;;26.40;33.19
77092;BME280;66032;48.252;11.638;2023-04-22T06:06:25;95481.88;;;26.71;32.55
77092;BME280;66032;48.252;11.638;2023-04-22T06:08:53;95479.56;;;26.23;33.20
77092;BME280;66032;48.252;11.638;2023-04-22T06:11:20;95487.66;;;27.10;33.82
77092;BME280;66032;48.252;11.638;2023-04-22T06:13:48;95487.16;;;28.23;31.42
77092;BME280;66032;48.252;11.638;2023-04-22T06:16:15;95488.88;;;28.58;30.10
77092;BME280;66032;48.252;11.638;2023-04-22T06:18:42;95500.09;;;29.30;29.43
77092;BME280;66032;48.252;11.638;2023-04-22T06:21:11;95493.03;;;29.87;28.95
77092;BME280;66032;48.252;11.638;2023-04-22T06:23:38;95497.63;;;29.91;28.00
77092;BME280;66032;48.252;11.638;2023-04-22T06:26:06;95504.44;;;29.02;28.69
77092;BME280;66032;48.252;11.638;2023-04-22T06:28:37;95499.59;;;28.94;28.42
77092;BME280;66032;48.252;11.638;2023-04-22T06:31:09;95493.25;;;28.59;29.03
77092;BME280;66032;48.252;11.638;2023-04-22T06:33:37;95501.56;;;28.83;28.85
77092;BME280;66032;48.252;11.638;2023-04-22T06:36:05;95505.06;;;28.45;29.13
77092;BME280;66032;48.252;11.638;2023-04-22T06:38:34;95506.09;;;29.32;28.69
77092;BME280;66032;48.252;11.638;2023-04-22T06:41:22;95507.91;;;30.28;28.31
77092;BME280;66032;48.252;11.638;2023-04-22T06:43:51;95496.44;;;30.69;27.34
77092;BME280;66032;48.252;11.638;2023-04-22T06:46:37;95497.91;;;30.99;26.69
77092;BME280;66032;48.252;11.638;2023-04-22T06:49:23;95496.31;;;32.09;24.87
77092;BME280;66032;48.252;11.638;2023-04-22T06:52:12;95502.19;;;33.06;24.54
77092;BME280;66032;48.252;11.638;2023-04-22T06:54:40;95506.34;;;33.62;24.03
77092;BME280;66032;48.252;11.638;2023-04-22T06:57:07;95497.75;;;32.33;24.25
77092;BME280;66032;48.252;11.638;2023-04-22T06:59:34;95489.94;;;31.21;25.47
77092;BME280;66032;48.252;11.638;2023-04-22T07:02:03;95488.03;;;31.35;25.45
77092;BME280;66032;48.252;11.638;2023-04-22T07:04:36;95484.22;;;32.23;24.67
77092;BME280;66032;48.252;11.638;2023-04-22T07:07:04;95481.50;;;32.37;24.30
77092;BME280;66032;48.252;11.638;2023-04-22T07:09:32;95495.09;;;33.50;23.34
77092;BME280;66032;48.252;11.638;2023-04-22T07:11:59;95495.53;;;34.28;22.94
77092;BME280;66032;48.252;11.638;2023-04-22T07:14:29;95486.81;;;35.25;21.90
77092;BME280;66032;48.252;11.638;2023-04-22T07:16:56;95493.25;;;36.28;21.28
77092;BME280;66032;48.252;11.638;2023-04-22T07:19:24;95488.91;;;36.77;20.84
77092;BME280;66032;48.252;11.638;2023-04-22T07:21:52;95492.22;;;37.53;19.64
77092;BME280;66032;48.252;11.638;2023-04-22T07:24:20;95497.88;;;38.23;19.89
77092;BME280;66032;48.252;11.638;2023-04-22T07:26:47;95484.28;;;39.19;18.84
77092;BME280;66032;48.252;11.638;2023-04-22T07:29:15;95476.59;;;40.27;17.89
77092;BME280;66032;48.252;11.638;2023-04-22T07:31:42;95483.03;;;40.63;17.24
77092;BME280;66032;48.252;11.638;2023-04-22T07:34:09;95473.00;;;41.47;17.05
77092;BME280;66032;48.252;11.638;2023-04-22T07:36:37;95478.13;;;41.84;16.89
77092;BME280;66032;48.252;11.638;2023-04-22T07:39:04;95469.53;;;42.61;16.16
77092;BME280;66032;48.252;11.638;2023-04-22T07:41:32;95474.31;;;42.83;15.52
77092;BME280;66032;48.252;11.638;2023-04-22T07:43:59;95464.25;;;42.78;16.01
77092;BME280;66032;48.252;11.638;2023-04-22T07:46:26;95459.56;;;41.91;16.34
77092;BME280;66032;48.252;11.638;2023-04-22T07:48:54;95460.38;;;42.87;15.76
77092;BME280;66032;48.252;11.638;2023-04-22T07:51:21;95473.66;;;43.53;15.64
77092;BME280;66032;48.252;11.638;2023-04-22T07:53:48;95470.09;;;44.30;15.57
77092;BME280;66032;48.252;11.638;2023-04-22T07:56:16;95464.94;;;44.76;15.05
77092;BME280;66032;48.252;11.638;2023-04-22T07:58:43;95467.19;;;45.15;14.18
77092;BME280;66032;48.252;11.638;2023-04-22T08:01:10;95458.09;;;45.35;15.13
77092;BME280;66032;48.252;11.638;2023-04-22T08:03:38;95455.41;;;44.37;14.84
77092;BME280;66032;48.252;11.638;2023-04-22T08:06:06;95450.38;;;44.56;14.95
77092;BME280;66032;48.252;11.638;2023-04-22T08:08:33;95460.91;;;45.39;14.14
77092;BME280;66032;48.252;11.638;2023-04-22T08:11:00;95465.56;;;46.07;13.92
77092;BME280;66032;48.252;11.638;2023-04-22T08:13:28;95462.19;;;45.56;13.86
77092;BME280;66032;48.252;11.638;2023-04-22T08:15:55;95469.41;;;45.64;14.45
77092;BME280;66032;48.252;11.638;2023-04-22T08:18:22;95460.81;;;46.26;14.00
77092;BME280;66032;48.252;11.638;2023-04-22T08:20:50;95458.38;;;46.60;14.04
77092;BME280;66032;48.252;11.638;2023-04-22T08:23:17;95466.78;;;46.88;13.35
77092;BME280;66032;48.252;11.638;2023-04-22T08:25:44;95459.59;;;46.66;13.82
77092;BME280;66032;48.252;11.638;2023-04-22T08:28:12;95457.19;;;46.71;13.83
77092;BME280;66032;48.252;11.638;2023-04-22T08:30:39;95461.88;;;47.38;13.22
77092;BME280;66032;48.252;11.638;2023-04-22T08:33:07;95462.59;;;47.60;12.72
77092;BME280;66032;48.252;11.638;2023-04-22T08:35:34;95471.19;;;48.05;13.03
77092;BME280;66032;48.252;11.638;2023-04-22T08:38:02;95469.19;;;48.05;12.63
77092;BME280;66032;48.252;11.638;2023-04-22T08:40:29;95456.41;;;46.60;13.08
77092;BME280;66032;48.252;11.638;2023-04-22T08:42:57;95464.81;;;46.71;13.13
77092;BME280;66032;48.252;11.638;2023-04-22T08:45:25;95468.19;;;47.74;12.16
77092;BME280;66032;48.252;11.638;2023-04-22T08:47:53;95468.03;;;48.61;12.14
77092;BME280;66032;48.252;11.638;2023-04-22T08:50:20;95467.19;;;48.64;12.40
77092;BME280;66032;48.252;11.638;2023-04-22T08:52:48;95465.56;;;49.08;12.32
77092;BME280;66032;48.252;11.638;2023-04-22T08:55:15;95468.41;;;49.46;11.88
77092;BME280;66032;48.252;11.638;2023-04-22T08:57:43;95460.00;;;49.38;11.84
77092;BME280;66032;48.252;11.638;2023-04-22T09:00:11;95460.34;;;49.78;11.00
77092;BME280;66032;48.252;11.638;2023-04-22T09:02:41;95452.03;;;49.33;11.49
77092;BME280;66032;48.252;11.638;2023-04-22T09:05:12;95452.44;;;48.94;11.65
77092;BME280;66032;48.252;11.638;2023-04-22T09:07:41;95440.31;;;47.07;12.77
77092;BME280;66032;48.252;11.638;2023-04-22T09:10:09;95444.88;;;47.77;12.79
77092;BME280;66032;48.252;11.638;2023-04-22T09:12:39;95433.06;;;45.89;12.27
77092;BME280;66032;48.252;11.638;2023-04-22T09:15:07;95440.31;;;47.07;12.11
77092;BME280;66032;48.252;11.638;2023-04-22T09:17:35;95437.16;;;46.30;12.60
77092;BME280;66032;48.252;11.638;2023-04-22T09:20:05;95434.31;;;46.87;12.44
77092;BME280;66032;48.252;11.638;2023-04-22T09:22:42;95436.59;;;47.42;12.51
77092;BME280;66032;48.252;11.638;2023-04-22T09:25:21;95433.03;;;48.07;12.48
77092;BME280;66032;48.252;11.638;2023-04-22T09:27:56;95433.53;;;47.88;12.17
77092;BME280;66032;48.252;11.638;2023-04-22T09:30:35;95440.88;;;47.68;12.36
77092;BME280;66032;48.252;11.638;2023-04-22T09:33:05;95426.94;;;49.09;11.02
77092;BME280;66032;48.252;11.638;2023-04-22T09:38:01;95422.81;;;50.11;10.67
77092;BME280;66032;48.252;11.638;2023-04-22T09:40:30;95420.31;;;50.17;11.16
77092;BME280;66032;48.252;11.638;2023-04-22T09:43:00;95418.03;;;48.24;11.24
77092;BME280;66032;48.252;11.638;2023-04-22T09:45:45;95420.44;;;47.56;11.95
77092;BME280;66032;48.252;11.638;2023-04-22T09:48:14;95418.59;;;47.14;12.65
77092;BME280;66032;48.252;11.638;2023-04-22T09:50:46;95408.91;;;48.61;11.52
77092;BME280;66032;48.252;11.638;2023-04-22T09:53:15;95407.63;;;49.41;11.07
77092;BME280;66032;48.252;11.638;2023-04-22T09:55:46;95405.38;;;49.63;11.39
77092;BME280;66032;48.252;11.638;2023-04-22T09:58:16;95399.28;;;49.34;11.14
77092;BME280;66032;48.252;11.638;2023-04-22T10:00:47;95393.31;;;48.50;11.33
77092;BME280;66032;48.252;11.638;2023-04-22T10:03:15;95397.31;;;47.97;12.00
77092;BME280;66032;48.252;11.638;2023-04-22T10:05:43;95401.75;;;47.14;12.05
77092;BME280;66032;48.252;11.638;2023-04-22T10:08:13;95387.47;;;46.34;12.66
77092;BME280;66032;48.252;11.638;2023-04-22T10:10:42;95388.66;;;46.30;12.56
77092;BME280;66032;48.252;11.638;2023-04-22T10:13:09;95380.22;;;46.47;12.82
77092;BME280;66032;48.252;11.638;2023-04-22T10:15:42;95381.19;;;43.58;14.27
77092;BME280;66032;48.252;11.638;2023-04-22T10:18:17;95381.13;;;41.89;15.33
77092;BME280;66032;48.252;11.638;2023-04-22T10:20:46;95380.19;;;41.01;16.16
77092;BME280;66032;48.252;11.638;2023-04-22T10:23:21;95372.44;;;39.58;16.79
77092;BME280;66032;48.252;11.638;2023-04-22T10:25:53;95364.84;;;39.27;16.50
77092;BME280;66032;48.252;11.638;2023-04-22T10:28:22;95365.91;;;37.70;17.32
77092;BME280;66032;48.252;11.638;2023-04-22T10:30:50;95367.06;;;35.90;18.22
77092;BME280;66032;48.252;11.638;2023-04-22T10:41:24;95356.09;;;30.63;23.96
77092;BME280;66032;48.252;11.638;2023-04-22T10:44:04;95364.81;;;29.66;24.17
77092;BME280;66032;48.252;11.638;2023-04-22T10:49:07;95348.59;;;28.30;26.45
77092;BME280;66032;48.252;11.638;2023-04-22T10:51:52;95365.81;;;27.72;28.80
77092;BME280;66032;48.252;11.638;2023-04-22T10:57:09;95355.94;;;25.53;30.25
77092;BME280;66032;48.252;11.638;2023-04-22T10:59:47;95356.63;;;25.23;31.69
77092;BME280;66032;48.252;11.638;2023-04-22T11:02:17;95357.44;;;24.76;31.99
77092;BME280;66032;48.252;11.638;2023-04-22T11:04:45;95362.03;;;24.44;32.26
77092;BME280;66032;48.252;11.638;2023-04-22T11:09:53;95353.13;;;23.46;33.62
77092;BME280;66032;48.252;11.638;2023-04-22T11:15:19;95363.88;;;22.64;34.74
77092;BME280;66032;48.252;11.638;2023-04-22T11:17:52;95357.66;;;22.63;34.45
77092;BME280;66032;48.252;11.638;2023-04-22T11:20:20;95357.09;;;22.45;33.32
77092;BME280;66032;48.252;11.638;2023-04-22T11:22:51;95365.69;;;22.25;34.42
77092;BME280;66032;48.252;11.638;2023-04-22T11:25:19;95353.66;;;22.16;34.29
77092;BME280;66032;48.252;11.638;2023-04-22T11:27:47;95338.94;;;21.95;34.50
77092;BME280;66032;48.252;11.638;2023-04-22T11:30:20;95350.94;;;21.99;34.81
77092;BME280;66032;48.252;11.638;2023-04-22T11:32:49;95350.72;;;22.01;34.46
77092;BME280;66032;48.252;11.638;2023-04-22T11:35:20;95354.06;;;22.08;33.75
77092;BME280;66032;48.252;11.638;2023-04-22T11:37:53;95350.84;;;22.11;34.33
77092;BME280;66032;48.252;11.638;2023-04-22T11:40:26;95351.13;;;21.81;34.87
77092;BME280;66032;48.252;11.638;2023-04-22T11:42:59;95347.13;;;21.83;35.17
77092;BME280;66032;48.252;11.638;2023-04-22T11:45:29;95353.06;;;21.85;33.93
77092;BME280;66032;48.252;11.638;2023-04-22T11:47:58;95356.03;;;21.84;34.10
77092;BME280;66032;48.252;11.638;2023-04-22T11:50:28;95348.50;;;21.86;33.97
77092;BME280;66032;48.252;11.638;2023-04-22T11:53:01;95346.38;;;21.88;35.04
77092;BME280;66032;48.252;11.638;2023-04-22T11:55:30;95349.13;;;21.76;35.01
77092;BME280;66032;48.252;11.638;2023-04-22T11:58:13;95348.81;;;21.73;33.76
77092;BME280;66032;48.252;11.638;2023-04-22T12:00:48;95354.28;;;21.78;34.43
77092;BME280;66032;48.252;11.638;2023-04-22T12:03:26;95342.53;;;21.84;34.36
77092;BME280;66032;48.252;11.638;2023-04-22T12:06:03;95345.56;;;21.87;35.91
77092;BME280;66032;48.252;11.638;2023-04-22T12:08:32;95344.03;;;21.91;35.15
77092;BME280;66032;48.252;11.638;2023-04-22T12:11:02;95347.44;;;21.87;35.30
77092;BME280;66032;48.252;11.638;2023-04-22T12:16:12;95338.56;;;22.03;36.37
77092;BME280;66032;48.252;11.638;2023-04-22T12:18:47;95340.16;;;22.16;34.99
77092;BME280;66032;48.252;11.638;2023-04-22T12:21:19;95340.22;;;22.21;33.63
77092;BME280;66032;48.252;11.638;2023-04-22T12:23:52;95334.66;;;22.27;33.77
77092;BME280;66032;48.252;11.638;2023-04-22T12:26:22;95341.94;;;22.44;33.33
77092;BME280;66032;48.252;11.638;2023-04-22T12:28:54;95337.94;;;22.63;32.82
77092;BME280;66032;48.252;11.638;2023-04-22T12:31:22;95334.97;;;22.64;32.47
77092;BME280;66032;48.252;11.638;2023-04-22T12:33:50;95336.88;;;22.81;32.43
77092;BME280;66032;48.252;11.638;2023-04-22T12:36:18;95327.97;;;23.02;32.04
77092;BME280;66032;48.252;11.638;2023-04-22T12:38:49;95330.31;;;23.15;33.97
77092;BME280;66032;48.252;11.638;2023-04-22T12:41:17;95325.47;;;23.17;32.42
77092;BME280;66032;48.252;11.638;2023-04-22T12:43:44;95333.00;;;23.15;32.59
77092;BME280;66032;48.252;11.638;2023-04-22T12:46:12;95329.16;;;22.89;33.24
77092;BME280;66032;48.252;11.638;2023-04-22T12:48:39;95328.34;;;22.89;32.75
77092;BME280;66032;48.252;11.638;2023-04-22T12:51:08;95322.69;;;22.90;32.48
77092;BME280;66032;48.252;11.638;2023-04-22T12:53:36;95326.38;;;22.84;32.44
77092;BME280;66032;48.252;11.638;2023-04-22T12:56:04;95317.63;;;22.77;32.65
77092;BME280;66032;48.252;11.638;2023-04-22T12:58:31;95323.69;;;22.67;32.79
77092;BME280;66032;48.252;11.638;2023-04-22T13:00:59;95324.03;;;22.38;33.53
77092;BME280;66032;48.252;11.638;2023-04-22T13:03:26;95321.25;;;22.32;33.79
77092;BME280;66032;48.252;11.638;2023-04-22T13:05:53;95324.50;;;22.18;33.88
77092;BME280;66032;48.252;11.638;2023-04-22T13:08:21;95314.94;;;22.10;33.53
77092;BME280;66032;48.252;11.638;2023-04-22T13:10:48;95309.22;;;22.07;33.38
77092;BME280;66032;48.252;11.638;2023-04-22T13:13:16;95308.31;;;22.01;33.15
77092;BME280;66032;48.252;11.638;2023-04-22T13:15:46;95297.88;;;21.93;33.58
77092;BME280;66032;48.252;11.638;2023-04-22T13:18:16;95305.69;;;22.06;33.90
77092;BME280;66032;48.252;11.638;2023-04-22T13:20:43;95295.63;;;22.02;34.06
77092;BME280;66032;48.252;11.638;2023-04-22T13:23:11;95307.81;;;22.04;37.84
77092;BME280;66032;48.252;11.638;2023-04-22T13:25:39;95298.66;;;22.05;38.19
77092;BME280;66032;48.252;11.638;2023-04-22T13:28:06;95309.69;;;22.04;39.43
77092;BME280;66032;48.252;11.638;2023-04-22T13:30:34;95292.97;;;21.90;38.93